Time;durP1;ratioP1;P1;durP2;ratioP2;P2;SDS_P1;SDS_P2;PMS_P1;PMS_P2;Temp;Humidity;BMP_temperature;BMP_pressure;BME280_temperature;BME280_humidity;BME280_pressure;Samples;Min_cycle;Max_cycle;Signal;HPM_P1;HPM_P2
2023/08/14 00:01:41;;;;;;;7.97;4.97;;;;;;;;;;5094666;28;20230;-71
2023/08/14 00:04:09;;;;;;;8.90;5.30;;;;;;;;;;5099615;28;20648;-71
2023/08/14 00:06:36;;;;;;;8.03;5.00;;;;;;;;;;5100083;28;20221;-71
2023/08/14 00:09:03;;;;;;;8.27;5.67;;;;;;;;;;5100480;28;20208;-71
2023/08/14 00:11:31;;;;;;;6.47;5.93;;;;;;;;;;5100076;28;20320;-71
2023/08/14 00:14:00;;;;;;;7.43;5.10;;;;;;;;;;5100348;28;20207;-71
2023/08/14 00:16:28;;;;;;;10.80;5.20;;;;;;;;;;5100293;28;20230;-71
2023/08/14 00:18:56;;;;;;;6.10;5.50;;;;;;;;;;5100048;28;20202;-71
2023/08/14 00:21:24;;;;;;;6.37;5.27;;;;;;;;;;5099368;28;20232;-71
2023/08/14 00:23:52;;;;;;;7.90;5.13;;;;;;;;;;5099866;28;20211;-71
2023/08/14 00:26:20;;;;;;;6.97;5.30;;;;;;;;;;5100103;28;20216;-71
2023/08/14 00:28:52;;;;;;;6.23;5.40;;;;;;;;;;5099896;28;20641;-71
2023/08/14 00:31:21;;;;;;;8.23;5.07;;;;;;;;;;5097377;28;20660;-71
2023/08/14 00:33:50;;;;;;;8.17;5.23;;;;;;;;;;5098804;28;20195;-71
2023/08/14 00:36:21;;;;;;;6.90;5.53;;;;;;;;;;5099026;28;20208;-71
2023/08/14 00:38:49;;;;;;;6.90;5.00;;;;;;;;;;5098123;28;20198;-71
2023/08/14 00:41:16;;;;;;;8.67;5.40;;;;;;;;;;5088963;28;20221;-71
2023/08/14 00:43:44;;;;;;;9.13;5.70;;;;;;;;;;5096329;28;20235;-72
2023/08/14 00:46:12;;;;;;;6.37;5.30;;;;;;;;;;5096069;28;20652;-71
2023/08/14 00:48:42;;;;;;;5.90;5.30;;;;;;;;;;5094286;28;20698;-71
2023/08/14 00:51:10;;;;;;;10.37;5.63;;;;;;;;;;5098236;28;20237;-71
2023/08/14 00:53:38;;;;;;;7.10;5.30;;;;;;;;;;5097722;28;20204;-71
2023/08/14 00:56:05;;;;;;;6.77;6.07;;;;;;;;;;5098139;28;20198;-70
2023/08/14 00:58:33;;;;;;;6.97;6.27;;;;;;;;;;5099163;28;20299;-70
2023/08/14 01:01:01;;;;;;;6.43;5.10;;;;;;;;;;5092449;28;20757;-71
2023/08/14 01:03:29;;;;;;;7.80;5.37;;;;;;;;;;5099049;28;20221;-70
2023/08/14 01:05:58;;;;;;;6.00;5.30;;;;;;;;;;5098593;28;20208;-71
2023/08/14 01:08:26;;;;;;;7.00;5.80;;;;;;;;;;5098085;28;20280;-71
2023/08/14 01:10:59;;;;;;;8.53;5.73;;;;;;;;;;5098552;28;20223;-71
2023/08/14 01:13:31;;;;;;;6.40;5.80;;;;;;;;;;5098644;28;20639;-71
2023/08/14 01:16:02;;;;;;;7.17;6.27;;;;;;;;;;5098391;28;20203;-71
2023/08/14 01:18:31;;;;;;;11.00;5.87;;;;;;;;;;5098145;28;20265;-71
2023/08/14 01:21:04;;;;;;;12.23;6.10;;;;;;;;;;5097804;28;20589;-71
2023/08/14 01:23:33;;;;;;;6.93;5.83;;;;;;;;;;5098809;28;20249;-71
2023/08/14 01:26:02;;;;;;;6.97;5.67;;;;;;;;;;5088939;28;20286;-71
2023/08/14 01:28:30;;;;;;;6.20;5.60;;;;;;;;;;5099006;28;20207;-71
2023/08/14 01:30:58;;;;;;;8.93;6.27;;;;;;;;;;5097972;28;20234;-71
2023/08/14 01:33:26;;;;;;;7.60;6.40;;;;;;;;;;5096746;28;20200;-71
2023/08/14 01:35:58;;;;;;;10.47;5.73;;;;;;;;;;5097834;28;20208;-71
2023/08/14 01:38:29;;;;;;;6.43;5.70;;;;;;;;;;5097995;28;20209;-71
2023/08/14 01:40:58;;;;;;;9.17;6.30;;;;;;;;;;5093239;28;20247;-71
2023/08/14 01:43:30;;;;;;;9.47;5.10;;;;;;;;;;5091314;28;20681;-70
2023/08/14 01:45:58;;;;;;;9.07;5.23;;;;;;;;;;5097514;28;20634;-72
2023/08/14 01:48:26;;;;;;;6.00;4.77;;;;;;;;;;5098383;28;20244;-71
2023/08/14 01:50:56;;;;;;;6.40;4.93;;;;;;;;;;5096354;28;20241;-71
2023/08/14 01:53:24;;;;;;;5.77;4.90;;;;;;;;;;5098538;28;20288;-70
2023/08/14 01:55:51;;;;;;;6.53;4.30;;;;;;;;;;5097247;28;20646;-71
2023/08/14 01:58:19;;;;;;;11.30;5.07;;;;;;;;;;5098097;28;20587;-70
2023/08/14 02:00:49;;;;;;;6.13;4.23;;;;;;;;;;5091316;28;20272;-70
2023/08/14 02:03:17;;;;;;;7.70;5.00;;;;;;;;;;5097143;28;20234;-71
2023/08/14 02:05:44;;;;;;;5.33;4.30;;;;;;;;;;5098449;28;20293;-70
2023/08/14 02:08:12;;;;;;;7.03;4.80;;;;;;;;;;5097894;28;20631;-70
2023/08/14 02:10:40;;;;;;;7.37;5.43;;;;;;;;;;5098289;28;20382;-71
2023/08/14 02:13:08;;;;;;;6.07;4.57;;;;;;;;;;5098217;28;20205;-70
2023/08/14 02:15:35;;;;;;;6.63;5.60;;;;;;;;;;5098203;28;20238;-70
2023/08/14 02:18:05;;;;;;;11.73;6.10;;;;;;;;;;5097670;28;20277;-70
2023/08/14 02:20:33;;;;;;;7.10;5.97;;;;;;;;;;5097368;28;20224;-70
2023/08/14 02:23:01;;;;;;;11.10;6.90;;;;;;;;;;5097657;28;20231;-70
2023/08/14 02:25:28;;;;;;;8.33;6.37;;;;;;;;;;5097285;28;20310;-70
2023/08/14 02:27:56;;;;;;;9.93;6.07;;;;;;;;;;5097784;28;20211;-67
2023/08/14 02:30:24;;;;;;;7.53;6.30;;;;;;;;;;5096976;28;20223;-72
2023/08/14 02:32:52;;;;;;;8.20;6.73;;;;;;;;;;5097034;28;20204;-74
2023/08/14 02:35:21;;;;;;;8.73;7.07;;;;;;;;;;5095771;28;20215;-74
2023/08/14 02:37:49;;;;;;;8.67;6.27;;;;;;;;;;5097020;28;20199;-74
2023/08/14 02:40:17;;;;;;;11.00;7.20;;;;;;;;;;5082005;28;20228;-74
2023/08/14 02:42:44;;;;;;;7.80;6.37;;;;;;;;;;5096846;28;20207;-74
2023/08/14 02:45:12;;;;;;;12.47;7.13;;;;;;;;;;5097902;28;20225;-74
2023/08/14 02:47:40;;;;;;;10.20;6.67;;;;;;;;;;5097279;28;20223;-74
2023/08/14 02:50:08;;;;;;;9.03;7.30;;;;;;;;;;5097284;28;20731;-74
2023/08/14 02:52:37;;;;;;;8.93;6.70;;;;;;;;;;5095587;28;20237;-74
2023/08/14 02:55:05;;;;;;;6.13;5.50;;;;;;;;;;5096982;28;20197;-74
2023/08/14 02:57:33;;;;;;;8.67;5.77;;;;;;;;;;5096822;28;20215;-74
2023/08/14 03:00:00;;;;;;;8.60;5.70;;;;;;;;;;5096364;28;20237;-74
2023/08/14 03:02:28;;;;;;;5.03;4.50;;;;;;;;;;5091095;28;20284;-74
2023/08/14 03:04:56;;;;;;;5.57;4.90;;;;;;;;;;5089699;28;20265;-74
2023/08/14 03:07:24;;;;;;;7.00;5.73;;;;;;;;;;5096193;28;20626;-74
2023/08/14 03:09:53;;;;;;;8.73;6.47;;;;;;;;;;5096025;28;20307;-74
2023/08/14 03:12:21;;;;;;;6.97;5.97;;;;;;;;;;5097272;28;20661;-74
2023/08/14 03:14:49;;;;;;;8.20;5.57;;;;;;;;;;5093342;28;20206;-74
2023/08/14 03:17:17;;;;;;;7.43;6.27;;;;;;;;;;5092037;28;20201;-74
2023/08/14 03:19:45;;;;;;;10.40;6.37;;;;;;;;;;5091543;28;20722;-73
2023/08/14 03:22:12;;;;;;;8.07;5.80;;;;;;;;;;5096250;28;20254;-74
2023/08/14 03:24:40;;;;;;;8.50;4.97;;;;;;;;;;5096848;28;20227;-74
2023/08/14 03:27:09;;;;;;;8.17;5.77;;;;;;;;;;5095261;28;20648;-73
2023/08/14 03:29:37;;;;;;;9.63;5.70;;;;;;;;;;5091426;28;20744;-74
2023/08/14 03:32:05;;;;;;;6.77;5.33;;;;;;;;;;5096603;28;20204;-74
2023/08/14 03:34:33;;;;;;;8.00;5.37;;;;;;;;;;5095444;28;20199;-74
2023/08/14 03:37:01;;;;;;;9.33;5.43;;;;;;;;;;5096599;28;20660;-74
2023/08/14 03:39:31;;;;;;;6.13;4.90;;;;;;;;;;5094722;28;20718;-74
2023/08/14 03:42:02;;;;;;;8.23;5.63;;;;;;;;;;5099601;28;20210;-74
2023/08/14 03:44:31;;;;;;;9.13;4.90;;;;;;;;;;5100435;28;20227;-74
2023/08/14 03:46:59;;;;;;;6.97;5.53;;;;;;;;;;5097713;28;20202;-74
2023/08/14 03:49:28;;;;;;;6.90;5.37;;;;;;;;;;5095241;28;20206;-74
2023/08/14 03:51:59;;;;;;;9.20;5.03;;;;;;;;;;5097269;28;20193;-74
2023/08/14 03:54:27;;;;;;;7.47;5.50;;;;;;;;;;5100373;28;20194;-74
2023/08/14 03:56:55;;;;;;;7.93;5.33;;;;;;;;;;5094155;28;20232;-74
2023/08/14 03:59:23;;;;;;;9.10;5.80;;;;;;;;;;5088283;28;20289;-75
2023/08/14 04:01:52;;;;;;;8.17;4.80;;;;;;;;;;5098933;28;20221;-74
2023/08/14 04:04:20;;;;;;;7.23;4.67;;;;;;;;;;5112483;28;20220;-74
2023/08/14 04:06:48;;;;;;;6.87;4.37;;;;;;;;;;5100472;28;20572;-74
2023/08/14 04:09:16;;;;;;;7.53;4.40;;;;;;;;;;5099165;28;20217;-74
2023/08/14 04:11:43;;;;;;;4.67;3.80;;;;;;;;;;5097659;28;20229;-74
2023/08/14 04:14:11;;;;;;;5.77;4.13;;;;;;;;;;5098407;28;20212;-75
2023/08/14 04:16:43;;;;;;;7.73;3.93;;;;;;;;;;5097608;28;20240;-74
2023/08/14 04:19:14;;;;;;;4.57;3.53;;;;;;;;;;5098518;28;20248;-75
2023/08/14 04:21:42;;;;;;;6.17;4.30;;;;;;;;;;5099234;28;20239;-74
2023/08/14 04:24:10;;;;;;;4.23;3.70;;;;;;;;;;5099678;28;20249;-74
2023/08/14 04:26:38;;;;;;;4.67;4.00;;;;;;;;;;5095595;28;20197;-74
2023/08/14 04:29:06;;;;;;;4.27;3.50;;;;;;;;;;5100028;28;20212;-74
2023/08/14 04:31:34;;;;;;;4.50;3.13;;;;;;;;;;5097725;28;20229;-75
2023/08/14 04:34:02;;;;;;;3.60;3.30;;;;;;;;;;5097266;28;20201;-74
2023/08/14 04:36:32;;;;;;;4.70;3.47;;;;;;;;;;5099036;28;20229;-74
2023/08/14 04:39:00;;;;;;;5.40;3.60;;;;;;;;;;5096003;28;20304;-74
2023/08/14 04:41:28;;;;;;;3.87;3.47;;;;;;;;;;5099122;28;20307;-74
2023/08/14 04:43:55;;;;;;;3.37;3.10;;;;;;;;;;5098748;28;20205;-74
2023/08/14 04:46:31;;;;;;;3.00;2.80;;;;;;;;;;5096996;28;20232;-75
2023/08/14 04:49:11;;;;;;;3.63;3.13;;;;;;;;;;5097594;28;20563;-74
2023/08/14 04:51:41;;;;;;;4.03;3.50;;;;;;;;;;5097487;28;20230;-74
2023/08/14 04:54:09;;;;;;;4.43;3.30;;;;;;;;;;5098824;28;20648;-73
2023/08/14 04:56:36;;;;;;;4.43;3.30;;;;;;;;;;5097322;28;20579;-74
2023/08/14 04:59:04;;;;;;;6.70;3.23;;;;;;;;;;5098613;28;20203;-74
2023/08/14 05:01:32;;;;;;;4.17;3.20;;;;;;;;;;5097727;28;20270;-73
2023/08/14 05:04:01;;;;;;;5.33;3.83;;;;;;;;;;5093470;28;20203;-73
2023/08/14 05:06:29;;;;;;;7.57;3.50;;;;;;;;;;5091711;28;20248;-74
2023/08/14 05:08:58;;;;;;;5.37;4.00;;;;;;;;;;5096797;28;20203;-74
2023/08/14 05:11:31;;;;;;;5.57;3.60;;;;;;;;;;5090091;28;20224;-74
2023/08/14 05:13:59;;;;;;;5.33;3.90;;;;;;;;;;5096918;28;20204;-75
2023/08/14 05:16:26;;;;;;;5.83;3.67;;;;;;;;;;5097258;28;20202;-74
2023/08/14 05:18:54;;;;;;;5.47;3.50;;;;;;;;;;5096272;28;21097;-73
2023/08/14 05:21:22;;;;;;;5.83;4.07;;;;;;;;;;5095220;28;20230;-73
2023/08/14 05:23:50;;;;;;;5.33;3.97;;;;;;;;;;5094922;28;20229;-74
2023/08/14 05:26:19;;;;;;;4.23;3.73;;;;;;;;;;5096313;28;20219;-74
2023/08/14 05:28:48;;;;;;;3.40;3.10;;;;;;;;;;5096717;28;20271;-73
2023/08/14 05:31:17;;;;;;;5.97;3.70;;;;;;;;;;5096813;28;20224;-73
2023/08/14 05:33:46;;;;;;;4.73;3.10;;;;;;;;;;5096491;28;20212;-73
2023/08/14 05:36:14;;;;;;;5.47;3.77;;;;;;;;;;5098099;28;20201;-74
2023/08/14 05:38:44;;;;;;;4.07;3.60;;;;;;;;;;5093554;28;20641;-74
2023/08/14 05:41:12;;;;;;;6.20;3.47;;;;;;;;;;5096325;28;20861;-73
2023/08/14 05:43:41;;;;;;;5.67;3.73;;;;;;;;;;5097596;28;20228;-74
2023/08/14 05:46:09;;;;;;;6.20;3.87;;;;;;;;;;5097956;28;20307;-74
2023/08/14 05:48:36;;;;;;;5.40;3.80;;;;;;;;;;5098123;28;20288;-74
2023/08/14 05:51:04;;;;;;;3.93;3.50;;;;;;;;;;5096414;28;20221;-73
2023/08/14 05:53:32;;;;;;;4.23;3.83;;;;;;;;;;5098362;28;20212;-73
2023/08/14 05:56:00;;;;;;;5.87;3.77;;;;;;;;;;5097234;28;20221;-74
2023/08/14 05:58:28;;;;;;;5.67;3.67;;;;;;;;;;5097157;28;20294;-74
2023/08/14 06:01:00;;;;;;;10.10;3.97;;;;;;;;;;5090724;28;20249;-74
2023/08/14 06:03:28;;;;;;;4.40;3.13;;;;;;;;;;5097357;28;20344;-74
2023/08/14 06:06:11;;;;;;;4.77;3.60;;;;;;;;;;5097729;28;20321;-73
2023/08/14 06:08:39;;;;;;;4.30;3.67;;;;;;;;;;5098319;28;20209;-73
2023/08/14 06:11:06;;;;;;;4.03;3.47;;;;;;;;;;5097676;28;20307;-74
2023/08/14 06:13:34;;;;;;;3.80;3.17;;;;;;;;;;5097205;28;20279;-73
2023/08/14 06:16:03;;;;;;;7.30;3.60;;;;;;;;;;5095196;28;21240;-74
2023/08/14 06:18:31;;;;;;;4.90;3.23;;;;;;;;;;5094761;28;20215;-74
2023/08/14 06:20:59;;;;;;;3.70;2.60;;;;;;;;;;5097974;28;20239;-74
2023/08/14 06:23:27;;;;;;;6.40;3.37;;;;;;;;;;5098087;28;20296;-74
2023/08/14 06:25:54;;;;;;;4.67;3.60;;;;;;;;;;5095744;28;20609;-74
2023/08/14 06:28:22;;;;;;;6.43;3.10;;;;;;;;;;5096429;28;20310;-74
2023/08/14 06:30:50;;;;;;;5.73;3.97;;;;;;;;;;5096847;28;20246;-69
2023/08/14 06:33:19;;;;;;;4.60;3.67;;;;;;;;;;5096470;28;20208;-70
2023/08/14 06:35:47;;;;;;;5.87;3.90;;;;;;;;;;5096838;28;20197;-70
2023/08/14 06:38:14;;;;;;;6.07;3.70;;;;;;;;;;5096839;28;20213;-69
2023/08/14 06:40:44;;;;;;;6.10;4.10;;;;;;;;;;5096675;28;20219;-69
2023/08/14 06:43:11;;;;;;;7.60;4.23;;;;;;;;;;5096004;28;20677;-69
2023/08/14 06:45:39;;;;;;;5.23;3.80;;;;;;;;;;5096695;28;20231;-70
2023/08/14 06:48:07;;;;;;;5.87;3.73;;;;;;;;;;5097550;28;20291;-70
2023/08/14 06:50:36;;;;;;;5.53;3.43;;;;;;;;;;5096495;28;20220;-69
2023/08/14 06:53:04;;;;;;;4.60;3.57;;;;;;;;;;5093315;28;20198;-69
2023/08/14 06:55:32;;;;;;;9.87;4.63;;;;;;;;;;5096700;28;20200;-69
2023/08/14 06:57:59;;;;;;;4.90;3.67;;;;;;;;;;5097732;28;20219;-69
2023/08/14 07:00:28;;;;;;;6.33;3.80;;;;;;;;;;5096110;28;20795;-70
2023/08/14 07:02:55;;;;;;;6.97;3.67;;;;;;;;;;5093534;28;20224;-70
2023/08/14 07:05:23;;;;;;;6.67;3.97;;;;;;;;;;5096533;28;20224;-70
2023/08/14 07:07:53;;;;;;;5.10;3.60;;;;;;;;;;5096116;28;20285;-70
2023/08/14 07:10:21;;;;;;;5.33;3.30;;;;;;;;;;5095377;28;20230;-68
2023/08/14 07:12:49;;;;;;;6.23;3.23;;;;;;;;;;5099560;28;20242;-69
2023/08/14 07:15:17;;;;;;;12.03;3.93;;;;;;;;;;5100121;28;20196;-69
2023/08/14 07:17:44;;;;;;;4.80;3.37;;;;;;;;;;5087792;28;20231;-71
2023/08/14 07:20:13;;;;;;;6.13;3.90;;;;;;;;;;5096157;28;20270;-68
2023/08/14 07:22:41;;;;;;;5.83;3.77;;;;;;;;;;5094820;28;20200;-68
2023/08/14 07:25:11;;;;;;;5.67;3.80;;;;;;;;;;5097289;28;20285;-69
2023/08/14 07:27:39;;;;;;;4.00;3.40;;;;;;;;;;5096273;28;20202;-70
2023/08/14 07:30:07;;;;;;;4.83;3.10;;;;;;;;;;5097567;28;20221;-70
2023/08/14 07:32:35;;;;;;;4.20;3.10;;;;;;;;;;5098059;28;20235;-70
2023/08/14 07:35:04;;;;;;;4.77;3.43;;;;;;;;;;5094840;28;20233;-69
2023/08/14 07:37:31;;;;;;;7.63;3.40;;;;;;;;;;5098414;28;20195;-70
2023/08/14 07:39:59;;;;;;;7.67;3.30;;;;;;;;;;5097006;28;20610;-70
2023/08/14 07:42:29;;;;;;;4.77;3.33;;;;;;;;;;5099983;28;20284;-71
2023/08/14 07:44:56;;;;;;;3.60;3.30;;;;;;;;;;5099370;28;20205;-71
2023/08/14 07:47:24;;;;;;;3.53;3.23;;;;;;;;;;5097163;28;20623;-70
2023/08/14 07:49:52;;;;;;;6.80;3.17;;;;;;;;;;5094298;28;20395;-71
2023/08/14 07:52:20;;;;;;;5.90;3.77;;;;;;;;;;5098401;28;20725;-70
2023/08/14 07:54:51;;;;;;;4.23;3.20;;;;;;;;;;5100431;28;20601;-70
2023/08/14 07:57:19;;;;;;;4.23;3.40;;;;;;;;;;5100289;28;20348;-70
2023/08/14 07:59:48;;;;;;;6.10;3.60;;;;;;;;;;5099970;28;20228;-71
2023/08/14 08:02:16;;;;;;;4.87;3.50;;;;;;;;;;5107165;28;20640;-70
2023/08/14 08:04:44;;;;;;;4.13;3.43;;;;;;;;;;5099848;28;20213;-70
2023/08/14 08:07:12;;;;;;;5.27;4.27;;;;;;;;;;5094633;28;20223;-70
2023/08/14 08:09:39;;;;;;;4.83;3.53;;;;;;;;;;5096375;28;20227;-70
2023/08/14 08:12:08;;;;;;;4.43;3.33;;;;;;;;;;5099619;28;20207;-70
2023/08/14 08:14:36;;;;;;;5.17;3.10;;;;;;;;;;5096948;28;20228;-71
2023/08/14 08:17:05;;;;;;;4.37;3.83;;;;;;;;;;5096625;28;20194;-70
2023/08/14 08:19:33;;;;;;;5.67;3.60;;;;;;;;;;5098843;28;20212;-70
2023/08/14 08:22:01;;;;;;;4.40;3.30;;;;;;;;;;5098101;28;20210;-70
2023/08/14 08:24:29;;;;;;;6.37;3.73;;;;;;;;;;5098938;28;20209;-70
2023/08/14 08:26:57;;;;;;;5.07;3.23;;;;;;;;;;5097113;28;20214;-70
2023/08/14 08:29:24;;;;;;;4.10;3.30;;;;;;;;;;5099069;28;20198;-70
2023/08/14 08:31:52;;;;;;;4.30;3.90;;;;;;;;;;5098676;28;20221;-70
2023/08/14 08:34:21;;;;;;;4.33;3.40;;;;;;;;;;5099560;28;20586;-70
2023/08/14 08:36:49;;;;;;;4.57;3.20;;;;;;;;;;5098865;28;20209;-69
2023/08/14 08:39:17;;;;;;;3.87;3.10;;;;;;;;;;5098910;28;20207;-70
2023/08/14 08:41:47;;;;;;;4.30;3.63;;;;;;;;;;5097230;28;20230;-70
2023/08/14 08:44:18;;;;;;;5.10;3.80;;;;;;;;;;5097200;28;20194;-70
2023/08/14 08:46:48;;;;;;;5.70;3.30;;;;;;;;;;5093604;28;20232;-70
2023/08/14 08:49:16;;;;;;;5.37;3.50;;;;;;;;;;5097205;28;20708;-70
2023/08/14 08:51:46;;;;;;;6.27;3.50;;;;;;;;;;5096059;28;20225;-70
2023/08/14 08:54:16;;;;;;;3.30;3.00;;;;;;;;;;5091396;28;20204;-70
2023/08/14 08:56:45;;;;;;;5.40;3.73;;;;;;;;;;5090147;28;20207;-70
2023/08/14 08:59:13;;;;;;;3.83;3.47;;;;;;;;;;5088485;28;20658;-72
2023/08/14 09:01:41;;;;;;;6.77;3.63;;;;;;;;;;5087760;28;20325;-73
2023/08/14 09:04:09;;;;;;;4.57;3.37;;;;;;;;;;5090931;28;20613;-73
2023/08/14 09:06:37;;;;;;;5.80;3.20;;;;;;;;;;5086060;28;20222;-74
2023/08/14 09:09:07;;;;;;;3.97;3.00;;;;;;;;;;5087144;28;20294;-75
2023/08/14 09:11:35;;;;;;;8.30;3.50;;;;;;;;;;5087756;28;20287;-74
2023/08/14 09:14:03;;;;;;;4.63;3.30;;;;;;;;;;5088833;28;20207;-74
2023/08/14 09:16:31;;;;;;;4.00;3.20;;;;;;;;;;5088611;28;20205;-74
2023/08/14 09:18:59;;;;;;;5.43;3.20;;;;;;;;;;5087286;28;20611;-74
2023/08/14 09:21:28;;;;;;;4.30;3.13;;;;;;;;;;5087313;28;20918;-72
2023/08/14 09:23:56;;;;;;;4.20;2.87;;;;;;;;;;5086631;28;20203;-73
2023/08/14 09:26:26;;;;;;;3.30;2.93;;;;;;;;;;5083860;28;20208;-74
2023/08/14 09:28:54;;;;;;;6.37;3.00;;;;;;;;;;5087095;28;20287;-75
2023/08/14 09:31:21;;;;;;;5.17;3.13;;;;;;;;;;5086649;28;20252;-75
2023/08/14 09:33:49;;;;;;;6.97;3.13;;;;;;;;;;5090556;28;20611;-75
2023/08/14 09:36:17;;;;;;;3.67;2.63;;;;;;;;;;5087020;28;20664;-75
2023/08/14 09:38:45;;;;;;;5.55;3.00;;;;;;;;;;5087738;28;20211;-75
2023/08/14 09:41:13;;;;;;;2.70;2.47;;;;;;;;;;5087398;28;20719;-75
2023/08/14 09:43:45;;;;;;;4.45;2.20;;;;;;;;;;5085955;28;20201;-74
2023/08/14 09:46:14;;;;;;;3.45;2.20;;;;;;;;;;5098295;28;20196;-76
2023/08/14 09:48:43;;;;;;;6.85;3.33;;;;;;;;;;5094019;28;20696;-75
2023/08/14 09:51:12;;;;;;;4.18;3.70;;;;;;;;;;5096005;28;20315;-76
2023/08/14 09:53:44;;;;;;;5.75;3.33;;;;;;;;;;5088095;28;20204;-75
2023/08/14 09:56:12;;;;;;;5.18;3.53;;;;;;;;;;5090393;28;20208;-76
2023/08/14 09:58:42;;;;;;;8.18;3.65;;;;;;;;;;5098423;28;20200;-74
2023/08/14 10:01:12;;;;;;;4.72;3.28;;;;;;;;;;5097485;28;20237;-75
2023/08/14 10:03:40;;;;;;;4.90;3.05;;;;;;;;;;5092806;28;20230;-74
2023/08/14 10:06:10;;;;;;;6.43;3.20;;;;;;;;;;5099866;28;20201;-76
2023/08/14 10:08:39;;;;;;;4.57;3.50;;;;;;;;;;5100479;28;20235;-73
2023/08/14 10:11:08;;;;;;;5.63;4.03;;;;;;;;;;5100061;28;20579;-76
2023/08/14 10:13:51;;;;;;;4.90;2.53;;;;;;;;;;5097657;28;20277;-75
2023/08/14 10:16:22;;;;;;;2.97;2.40;;;;;;;;;;5098363;28;20202;-74
2023/08/14 10:18:53;;;;;;;3.30;2.05;;;;;;;;;;5099220;28;20209;-73
2023/08/14 10:21:21;;;;;;;4.55;2.05;;;;;;;;;;5088371;28;20245;-74
2023/08/14 10:23:50;;;;;;;6.10;1.83;;;;;;;;;;5098170;28;20234;-74
2023/08/14 10:26:18;;;;;;;3.05;2.05;;;;;;;;;;5097068;28;20695;-73
2023/08/14 10:28:47;;;;;;;6.60;2.65;;;;;;;;;;5091790;28;20230;-74
2023/08/14 10:31:15;;;;;;;2.10;1.90;;;;;;;;;;5094843;28;20221;-74
2023/08/14 10:33:44;;;;;;;4.15;2.03;;;;;;;;;;5095750;28;20233;-75
2023/08/14 10:36:18;;;;;;;2.30;2.10;;;;;;;;;;5094949;28;20207;-74
2023/08/14 10:38:48;;;;;;;4.97;1.92;;;;;;;;;;5095131;28;20279;-73
2023/08/14 10:41:22;;;;;;;3.83;2.28;;;;;;;;;;5095314;28;20220;-74
2023/08/14 10:43:52;;;;;;;3.20;2.05;;;;;;;;;;5095433;28;20201;-74
2023/08/14 10:46:20;;;;;;;6.82;2.28;;;;;;;;;;5098778;28;20212;-74
2023/08/14 10:48:49;;;;;;;4.47;2.13;;;;;;;;;;5099784;28;20229;-74
2023/08/14 10:51:20;;;;;;;3.25;2.50;;;;;;;;;;5101336;28;20538;-75
2023/08/14 10:53:48;;;;;;;5.00;2.17;;;;;;;;;;5101227;28;20226;-74
2023/08/14 10:56:17;;;;;;;7.25;2.65;;;;;;;;;;5104451;28;20648;-74
2023/08/14 10:58:48;;;;;;;2.45;2.08;;;;;;;;;;5104325;28;20204;-73
2023/08/14 11:01:18;;;;;;;4.32;2.00;;;;;;;;;;5096929;28;20264;-74
2023/08/14 11:04:00;;;;;;;4.93;1.98;;;;;;;;;;5102848;28;20690;-74
2023/08/14 11:06:29;;;;;;;5.78;2.28;;;;;;;;;;5092307;28;20204;-73
2023/08/14 11:08:58;;;;;;;3.28;2.42;;;;;;;;;;5102983;28;20228;-75
2023/08/14 11:11:27;;;;;;;5.10;2.20;;;;;;;;;;5101263;28;20217;-68
2023/08/14 11:13:55;;;;;;;5.30;2.30;;;;;;;;;;5101857;28;20205;-68
2023/08/14 11:16:24;;;;;;;3.45;2.42;;;;;;;;;;5102216;28;20605;-68
2023/08/14 11:18:52;;;;;;;4.78;2.20;;;;;;;;;;5101654;28;20224;-68
2023/08/14 11:21:23;;;;;;;5.13;2.22;;;;;;;;;;5095388;28;20244;-68
2023/08/14 11:24:00;;;;;;;3.55;2.03;;;;;;;;;;5102329;28;20656;-68
2023/08/14 11:26:31;;;;;;;4.32;2.15;;;;;;;;;;5101663;28;20205;-68
2023/08/14 11:29:00;;;;;;;7.38;3.95;;;;;;;;;;5101569;28;20313;-68
2023/08/14 11:31:30;;;;;;;21.67;13.30;;;;;;;;;;5101029;28;20225;-68
2023/08/14 11:34:08;;;;;;;4.45;2.72;;;;;;;;;;5102242;28;20209;-68
2023/08/14 11:36:39;;;;;;;4.40;2.30;;;;;;;;;;5098513;28;20205;-68
2023/08/14 11:39:07;;;;;;;3.40;2.03;;;;;;;;;;5101112;28;20202;-68
2023/08/14 11:41:35;;;;;;;4.60;3.20;;;;;;;;;;5099632;28;20347;-68
2023/08/14 11:44:03;;;;;;;5.72;2.72;;;;;;;;;;5100981;28;20237;-68
2023/08/14 11:46:33;;;;;;;4.05;2.05;;;;;;;;;;5099379;28;20197;-68
2023/08/14 11:49:01;;;;;;;3.42;1.98;;;;;;;;;;5099132;28;20654;-68
2023/08/14 11:51:29;;;;;;;3.83;2.28;;;;;;;;;;5099498;28;20240;-68
2023/08/14 11:53:57;;;;;;;4.50;2.10;;;;;;;;;;5099663;28;20201;-68
2023/08/14 11:56:25;;;;;;;4.88;2.30;;;;;;;;;;5099017;28;20197;-68
2023/08/14 11:58:53;;;;;;;2.85;1.88;;;;;;;;;;5088337;28;20246;-68
2023/08/14 12:01:37;;;;;;;1.85;1.75;;;;;;;;;;5090193;28;20237;-68
2023/08/14 12:04:05;;;;;;;2.03;1.73;;;;;;;;;;5100175;28;20231;-68
2023/08/14 12:06:34;;;;;;;2.70;2.13;;;;;;;;;;5100028;28;20255;-68
2023/08/14 12:09:06;;;;;;;2.95;2.00;;;;;;;;;;5100163;28;20229;-67
2023/08/14 12:11:34;;;;;;;6.88;2.22;;;;;;;;;;5100266;28;20240;-68
2023/08/14 12:14:04;;;;;;;4.75;2.30;;;;;;;;;;5100422;28;20205;-68
2023/08/14 12:16:31;;;;;;;3.20;1.85;;;;;;;;;;5099597;28;20652;-68
2023/08/14 12:19:01;;;;;;;6.25;2.33;;;;;;;;;;5100134;28;20205;-67
2023/08/14 12:21:31;;;;;;;5.80;2.17;;;;;;;;;;5100071;28;20227;-68
2023/08/14 12:23:58;;;;;;;5.45;1.60;;;;;;;;;;5100323;28;20213;-68
2023/08/14 12:26:26;;;;;;;7.63;2.40;;;;;;;;;;5100183;28;20200;-68
2023/08/14 12:28:54;;;;;;;6.03;2.22;;;;;;;;;;5099874;28;20349;-68
2023/08/14 12:31:22;;;;;;;7.38;2.08;;;;;;;;;;5090799;28;20236;-68
2023/08/14 12:33:49;;;;;;;6.47;2.47;;;;;;;;;;5098944;28;20201;-68
2023/08/14 12:36:27;;;;;;;5.30;2.25;;;;;;;;;;5099409;28;20228;-67
2023/08/14 12:38:55;;;;;;;4.47;2.20;;;;;;;;;;5100071;28;20240;-67
2023/08/14 12:41:23;;;;;;;8.38;2.25;;;;;;;;;;5098496;28;20225;-66
2023/08/14 12:43:52;;;;;;;4.68;2.30;;;;;;;;;;5100681;28;20239;-66
2023/08/14 12:46:20;;;;;;;5.43;2.28;;;;;;;;;;5099357;28;20197;-65
2023/08/14 12:48:48;;;;;;;5.50;2.05;;;;;;;;;;5098700;28;20672;-66
2023/08/14 12:51:15;;;;;;;4.18;1.92;;;;;;;;;;5095772;28;20217;-66
2023/08/14 12:53:44;;;;;;;9.40;2.10;;;;;;;;;;5097730;28;20202;-65
2023/08/14 12:56:12;;;;;;;7.35;2.28;;;;;;;;;;5097277;28;20221;-66
2023/08/14 12:58:45;;;;;;;3.53;1.85;;;;;;;;;;5096203;28;20204;-66
2023/08/14 13:01:16;;;;;;;7.13;2.03;;;;;;;;;;5090076;28;20278;-66
2023/08/14 13:03:44;;;;;;;5.00;1.73;;;;;;;;;;5097737;28;20208;-66
2023/08/14 13:06:12;;;;;;;6.93;2.28;;;;;;;;;;5098463;28;20649;-66
2023/08/14 13:08:40;;;;;;;3.95;1.70;;;;;;;;;;5097470;28;20231;-66
2023/08/14 13:11:09;;;;;;;3.67;2.80;;;;;;;;;;5089682;28;20218;-66
2023/08/14 13:13:37;;;;;;;4.18;1.80;;;;;;;;;;5099171;28;20220;-66
2023/08/14 13:16:06;;;;;;;6.75;2.30;;;;;;;;;;5098109;28;20211;-66
2023/08/14 13:18:34;;;;;;;6.75;2.00;;;;;;;;;;5097762;28;20555;-66
2023/08/14 13:21:01;;;;;;;4.63;1.83;;;;;;;;;;5098102;28;20217;-66
2023/08/14 13:23:29;;;;;;;6.95;2.20;;;;;;;;;;5097300;28;20208;-66
2023/08/14 13:25:57;;;;;;;6.03;1.80;;;;;;;;;;5097914;28;20613;-66
2023/08/14 13:28:26;;;;;;;3.67;2.00;;;;;;;;;;5097705;28;20201;-66
2023/08/14 13:30:54;;;;;;;11.45;1.95;;;;;;;;;;5097546;28;20249;-66
2023/08/14 13:33:22;;;;;;;8.20;2.13;;;;;;;;;;5097654;28;20201;-64
2023/08/14 13:35:49;;;;;;;11.23;2.28;;;;;;;;;;5097642;28;20205;-65
2023/08/14 13:38:17;;;;;;;6.28;2.38;;;;;;;;;;5085678;28;20212;-65
2023/08/14 13:40:45;;;;;;;3.55;1.70;;;;;;;;;;5095559;28;20217;-65
2023/08/14 13:43:13;;;;;;;12.02;2.00;;;;;;;;;;5097839;28;20273;-65
2023/08/14 13:45:42;;;;;;;4.93;1.67;;;;;;;;;;5097628;28;20612;-66
2023/08/14 13:48:11;;;;;;;6.10;1.73;;;;;;;;;;5098344;28;20648;-66
2023/08/14 13:50:39;;;;;;;6.07;2.15;;;;;;;;;;5096498;28;20221;-65
2023/08/14 13:53:09;;;;;;;6.85;1.70;;;;;;;;;;5096678;28;20194;-66
2023/08/14 13:55:37;;;;;;;4.00;1.88;;;;;;;;;;5097336;28;20228;-65
2023/08/14 13:58:05;;;;;;;2.45;1.70;;;;;;;;;;5093280;28;20197;-66
2023/08/14 14:00:33;;;;;;;8.10;2.83;;;;;;;;;;5093600;28;20320;-65
2023/08/14 14:03:02;;;;;;;6.05;1.88;;;;;;;;;;5098155;28;20277;-64
2023/08/14 14:05:32;;;;;;;5.28;1.95;;;;;;;;;;5098265;28;20652;-65
2023/08/14 14:08:00;;;;;;;4.68;1.92;;;;;;;;;;5098202;28;20205;-65
2023/08/14 14:10:28;;;;;;;4.38;2.10;;;;;;;;;;5098056;28;20228;-65
2023/08/14 14:12:56;;;;;;;4.15;2.15;;;;;;;;;;5098107;28;20213;-65
2023/08/14 14:15:26;;;;;;;9.60;2.40;;;;;;;;;;5093994;28;20209;-66
2023/08/14 14:17:54;;;;;;;2.83;1.70;;;;;;;;;;5097907;28;20233;-65
2023/08/14 14:20:24;;;;;;;4.72;1.60;;;;;;;;;;5096811;28;20565;-65
2023/08/14 14:22:52;;;;;;;3.83;2.08;;;;;;;;;;5098022;28;20237;-65
2023/08/14 14:25:20;;;;;;;4.28;2.00;;;;;;;;;;5098080;28;20221;-66
2023/08/14 14:27:47;;;;;;;4.25;1.83;;;;;;;;;;5097819;28;20671;-65
2023/08/14 14:30:15;;;;;;;8.40;1.90;;;;;;;;;;5097781;28;20264;-65
2023/08/14 14:32:43;;;;;;;4.95;1.85;;;;;;;;;;5096995;28;20215;-65
2023/08/14 14:35:13;;;;;;;7.07;2.10;;;;;;;;;;5097894;28;20217;-65
2023/08/14 14:37:43;;;;;;;4.93;1.98;;;;;;;;;;5096155;28;20205;-65
2023/08/14 14:40:11;;;;;;;5.20;1.92;;;;;;;;;;5096931;28;20213;-65
2023/08/14 14:42:38;;;;;;;7.82;2.13;;;;;;;;;;5097621;28;20205;-65
2023/08/14 14:45:07;;;;;;;6.22;2.03;;;;;;;;;;5096468;28;20201;-65
2023/08/14 14:47:41;;;;;;;6.57;1.77;;;;;;;;;;5096376;28;20201;-65
2023/08/14 14:50:09;;;;;;;6.15;1.90;;;;;;;;;;5095630;28;20250;-65
2023/08/14 14:52:56;;;;;;;5.70;2.00;;;;;;;;;;5096801;28;20227;-65